createdAt,value
2022-07-30T00:03:24.000Z,9.6
2022-07-30T00:06:57.000Z,10
2022-07-30T00:09:48.000Z,9
2022-07-30T00:13:26.000Z,9.9
2022-07-30T00:16:59.000Z,9.1
2022-07-30T00:20:33.000Z,8.9
2022-07-30T00:24:09.000Z,8.1
2022-07-30T00:27:42.000Z,9.1
2022-07-30T00:31:14.000Z,9.2
2022-07-30T00:34:47.000Z,9.4
2022-07-30T00:38:20.000Z,9.9
2022-07-30T00:41:52.000Z,9.3
2022-07-30T00:45:25.000Z,11.2
2022-07-30T00:48:16.000Z,9.6
2022-07-30T00:51:49.000Z,9
2022-07-30T00:55:22.000Z,10.1
2022-07-30T00:58:54.000Z,9.4
2022-07-30T01:02:27.000Z,9.7
2022-07-30T01:06:00.000Z,9.2
2022-07-30T01:09:39.000Z,8.6
2022-07-30T01:13:13.000Z,8.8
2022-07-30T01:16:46.000Z,9.9
2022-07-30T01:20:19.000Z,9.9
2022-07-30T01:23:51.000Z,9.3
2022-07-30T01:26:43.000Z,9.5
2022-07-30T01:30:17.000Z,9.2
2022-07-30T01:33:50.000Z,10.1
2022-07-30T01:37:23.000Z,11.6
2022-07-30T01:40:56.000Z,9.8
2022-07-30T01:44:28.000Z,11.8
2022-07-30T01:48:01.000Z,11.1
2022-07-30T01:51:34.000Z,9.2
2022-07-30T01:55:06.000Z,9.7
2022-07-30T01:58:42.000Z,10.5
2022-07-30T02:02:15.000Z,11
2022-07-30T02:05:06.000Z,10.7
2022-07-30T02:08:39.000Z,11.6
2022-07-30T02:12:11.000Z,11.4
2022-07-30T02:15:44.000Z,12.2
2022-07-30T02:19:18.000Z,12.5
2022-07-30T02:22:57.000Z,15
2022-07-30T02:26:30.000Z,14.1
2022-07-30T02:30:03.000Z,12.6
2022-07-30T02:33:35.000Z,13.2
2022-07-30T02:37:14.000Z,12.2
2022-07-30T02:41:09.000Z,12.2
2022-07-30T02:44:00.000Z,11
2022-07-30T02:47:33.000Z,11.7
2022-07-30T02:51:06.000Z,11.9
2022-07-30T02:54:38.000Z,11.3
2022-07-30T02:58:11.000Z,12.1
2022-07-30T03:01:44.000Z,13.9
2022-07-30T03:05:16.000Z,13.4
2022-07-30T03:08:49.000Z,14.3
2022-07-30T03:12:21.000Z,13.3
2022-07-30T03:15:54.000Z,13.5
2022-07-30T03:19:27.000Z,11.6
2022-07-30T03:22:18.000Z,11.9
2022-07-30T03:25:56.000Z,11.1
2022-07-30T03:29:29.000Z,14.2
2022-07-30T03:33:01.000Z,10
2022-07-30T03:36:34.000Z,13.2
2022-07-30T03:40:07.000Z,11.2
2022-07-30T03:43:39.000Z,10.8
2022-07-30T03:47:12.000Z,9.8
2022-07-30T03:50:44.000Z,9.9
2022-07-30T03:54:17.000Z,10.1
2022-07-30T03:57:50.000Z,11.9
2022-07-30T04:00:41.000Z,8.7
2022-07-30T04:04:14.000Z,11.1
2022-07-30T04:07:46.000Z,11.6
2022-07-30T04:11:19.000Z,13.2
2022-07-30T04:15:08.000Z,12.9
2022-07-30T04:20:03.000Z,13.9
2022-07-30T04:23:42.000Z,14.7
2022-07-30T04:27:30.000Z,13
2022-07-30T04:31:28.000Z,12.9
2022-07-30T04:35:06.000Z,12.9
2022-07-30T04:39:15.000Z,12
2022-07-30T04:42:06.000Z,11.8
2022-07-30T04:45:39.000Z,12.2
2022-07-30T04:49:12.000Z,12
2022-07-30T04:52:45.000Z,11.8
2022-07-30T04:56:17.000Z,10.9
2022-07-30T04:59:50.000Z,11.5
2022-07-30T05:03:39.000Z,11.6
2022-07-30T05:07:11.000Z,12
2022-07-30T05:10:47.000Z,8.4
2022-07-30T05:14:20.000Z,10.1
2022-07-30T05:17:53.000Z,9.6
2022-07-30T05:20:44.000Z,9.3
2022-07-30T05:24:17.000Z,10.4
2022-07-30T05:27:49.000Z,9.1
2022-07-30T05:31:23.000Z,7.2
2022-07-30T05:35:02.000Z,11.5
2022-07-30T05:38:34.000Z,11.8
2022-07-30T05:42:07.000Z,13.3
2022-07-30T05:45:39.000Z,8.3
2022-07-30T05:49:12.000Z,8.6
2022-07-30T05:52:45.000Z,6.8
2022-07-30T05:56:18.000Z,12.7
2022-07-30T05:59:09.000Z,15.4
2022-07-30T06:02:42.000Z,9.9
2022-07-30T06:06:15.000Z,12.5
2022-07-30T06:09:48.000Z,11.8
2022-07-30T06:13:21.000Z,6.2
2022-07-30T06:16:54.000Z,7.6
2022-07-30T06:20:27.000Z,8.7
2022-07-30T06:24:05.000Z,8.7
2022-07-30T06:27:39.000Z,7.8
2022-07-30T06:31:12.000Z,11.1
2022-07-30T06:34:47.000Z,8.5
2022-07-30T06:37:48.000Z,12.3
2022-07-30T06:41:56.000Z,12.8
2022-07-30T06:45:29.000Z,11.7
2022-07-30T06:49:07.000Z,11.4
2022-07-30T06:52:39.000Z,7.6
2022-07-30T06:56:12.000Z,7.3
2022-07-30T06:59:45.000Z,10.9
2022-07-30T07:03:22.000Z,7.2
2022-07-30T07:07:05.000Z,12.9
2022-07-30T07:10:38.000Z,10.8
2022-07-30T07:14:11.000Z,8.6
2022-07-30T07:17:02.000Z,12.1
2022-07-30T07:20:35.000Z,11.3
2022-07-30T07:24:08.000Z,11.6
2022-07-30T07:27:41.000Z,12.6
2022-07-30T07:32:00.000Z,8.8
2022-07-30T07:35:33.000Z,8.5
2022-07-30T07:39:15.000Z,12.3
2022-07-30T07:42:47.000Z,13
2022-07-30T07:46:20.000Z,11.9
2022-07-30T07:49:59.000Z,8.8
2022-07-30T07:53:47.000Z,9.9
2022-07-30T07:57:05.000Z,7.8
2022-07-30T08:00:40.000Z,8.9
2022-07-30T08:04:13.000Z,8.3
2022-07-30T08:08:04.000Z,12.7
2022-07-30T08:11:43.000Z,10.2
2022-07-30T08:15:51.000Z,12.2
2022-07-30T08:19:24.000Z,12.4
2022-07-30T08:22:56.000Z,11
2022-07-30T08:26:29.000Z,8
2022-07-30T08:30:02.000Z,9.4
2022-07-30T08:33:35.000Z,7.3
2022-07-30T08:36:26.000Z,9
2022-07-30T08:39:59.000Z,10.3
2022-07-30T08:43:32.000Z,10.1
2022-07-30T08:47:05.000Z,6.9
2022-07-30T08:50:37.000Z,7.4
2022-07-30T08:54:10.000Z,7.9
2022-07-30T08:57:43.000Z,7.3
2022-07-30T09:01:15.000Z,8.4
2022-07-30T09:04:48.000Z,6.2
2022-07-30T09:08:21.000Z,7.2
2022-07-30T09:11:54.000Z,6.3
2022-07-30T09:14:45.000Z,7.5
2022-07-30T09:18:18.000Z,8.1
2022-07-30T09:21:51.000Z,7.7
2022-07-30T09:25:23.000Z,7.1
2022-07-30T09:28:56.000Z,7.3
2022-07-30T09:32:31.000Z,6.8
2022-07-30T09:36:03.000Z,6.1
2022-07-30T09:39:36.000Z,7.1
2022-07-30T09:43:37.000Z,6.5
2022-07-30T09:47:10.000Z,6.8
2022-07-30T09:50:43.000Z,6
2022-07-30T09:53:34.000Z,5.7
2022-07-30T09:57:09.000Z,5.3
2022-07-30T10:00:51.000Z,6.3
2022-07-30T10:04:25.000Z,5.3
2022-07-30T10:07:58.000Z,5
2022-07-30T10:11:43.000Z,5.8
2022-07-30T10:15:19.000Z,6.1
2022-07-30T10:18:52.000Z,5.2
2022-07-30T10:22:26.000Z,5.4
2022-07-30T10:25:59.000Z,4.4
2022-07-30T10:29:33.000Z,5.9
2022-07-30T10:32:26.000Z,4.8
2022-07-30T10:35:59.000Z,5.5
2022-07-30T10:39:35.000Z,5.2
2022-07-30T10:43:08.000Z,5.4
2022-07-30T10:46:41.000Z,4.7
2022-07-30T10:50:13.000Z,5.8
2022-07-30T10:53:47.000Z,4.7
2022-07-30T10:59:44.000Z,4.8
2022-07-30T11:03:17.000Z,4.7
2022-07-30T11:07:06.000Z,4.1
2022-07-30T11:10:42.000Z,4.6
2022-07-30T11:13:28.000Z,4.6
2022-07-30T11:17:17.000Z,4
2022-07-30T11:21:50.000Z,4.3
2022-07-30T11:25:23.000Z,4.7
2022-07-30T11:29:16.000Z,4.2
2022-07-30T11:32:58.000Z,4
2022-07-30T11:36:31.000Z,4.2
2022-07-30T11:40:12.000Z,4.3
2022-07-30T11:43:51.000Z,3.8
2022-07-30T11:47:24.000Z,4.2
2022-07-30T11:50:57.000Z,3.8
2022-07-30T11:53:48.000Z,3.8
2022-07-30T11:57:21.000Z,3.2
2022-07-30T12:01:03.000Z,3.7
2022-07-30T12:04:36.000Z,3.3
2022-07-30T12:08:09.000Z,3.2
2022-07-30T12:12:01.000Z,3.5
2022-07-30T12:15:44.000Z,3.3
2022-07-30T12:19:20.000Z,3.3
2022-07-30T12:22:52.000Z,3.4
2022-07-30T12:26:25.000Z,3.9
2022-07-30T12:29:58.000Z,3.4
2022-07-30T12:32:49.000Z,3
2022-07-30T12:36:22.000Z,2.9
2022-07-30T12:39:55.000Z,3
2022-07-30T12:43:27.000Z,2.9
2022-07-30T12:47:00.000Z,2.8
2022-07-30T12:50:33.000Z,2.9
2022-07-30T12:54:12.000Z,3
2022-07-30T12:57:44.000Z,2.7
2022-07-30T13:01:17.000Z,2.6
2022-07-30T13:04:50.000Z,2.7
2022-07-30T13:08:37.000Z,3
2022-07-30T13:11:27.000Z,3.1
2022-07-30T13:15:00.000Z,3.1
2022-07-30T13:18:33.000Z,2.9
2022-07-30T13:22:06.000Z,3
2022-07-30T13:25:38.000Z,3.4
2022-07-30T13:29:11.000Z,3.3
2022-07-30T13:32:44.000Z,3.2
2022-07-30T13:36:17.000Z,3.2
2022-07-30T13:39:49.000Z,3.1
2022-07-30T13:43:22.000Z,3.4
2022-07-30T13:46:59.000Z,3.3
2022-07-30T13:49:51.000Z,3.3
2022-07-30T13:53:23.000Z,3.1
2022-07-30T13:56:56.000Z,3.8
2022-07-30T14:00:34.000Z,2.7
2022-07-30T14:04:07.000Z,3.2
2022-07-30T14:07:41.000Z,3.2
2022-07-30T14:11:13.000Z,3.3
2022-07-30T14:14:46.000Z,3.3
2022-07-30T14:18:43.000Z,3.5
2022-07-30T14:22:15.000Z,3.8
2022-07-30T14:25:48.000Z,3.6
2022-07-30T14:28:40.000Z,3.7
2022-07-30T14:32:12.000Z,3.7
2022-07-30T14:35:48.000Z,3.8
2022-07-30T14:39:21.000Z,4
2022-07-30T14:42:54.000Z,3.5
2022-07-30T14:46:26.000Z,3.5
2022-07-30T14:50:01.000Z,3.8
2022-07-30T14:53:33.000Z,4.5
2022-07-30T14:57:06.000Z,3.9
2022-07-30T15:00:39.000Z,4.3
2022-07-30T15:04:14.000Z,4
2022-07-30T15:07:05.000Z,3.8
2022-07-30T15:10:38.000Z,3.9
2022-07-30T15:14:14.000Z,3.9
2022-07-30T15:17:49.000Z,3.5
2022-07-30T15:21:21.000Z,3.1
2022-07-30T15:24:54.000Z,3.7
2022-07-30T15:28:27.000Z,3.5
2022-07-30T15:32:00.000Z,3.8
2022-07-30T15:35:35.000Z,3.4
2022-07-30T15:39:08.000Z,3.7
2022-07-30T15:42:41.000Z,3.7
2022-07-30T15:45:32.000Z,3.4
2022-07-30T15:49:21.000Z,3.8
2022-07-30T15:52:54.000Z,3.5
2022-07-30T15:56:33.000Z,4
2022-07-30T16:00:05.000Z,3.7
2022-07-30T16:03:38.000Z,3.9
2022-07-30T16:07:13.000Z,3.9
2022-07-30T16:10:45.000Z,4.2
2022-07-30T16:14:18.000Z,3.7
2022-07-30T16:17:51.000Z,3.8
2022-07-30T16:21:23.000Z,3.3
2022-07-30T16:24:15.000Z,4
2022-07-30T16:27:47.000Z,3.7
2022-07-30T16:31:20.000Z,4
2022-07-30T16:34:53.000Z,4.2
2022-07-30T16:38:26.000Z,4.1
2022-07-30T16:41:58.000Z,4
2022-07-30T16:45:31.000Z,4.2
2022-07-30T16:49:08.000Z,3.9
2022-07-30T16:52:41.000Z,3.7
2022-07-30T16:56:13.000Z,3.8
2022-07-30T16:59:46.000Z,3.9
2022-07-30T17:02:37.000Z,4.4
2022-07-30T17:06:10.000Z,4.3
2022-07-30T17:09:43.000Z,4.2
2022-07-30T17:13:46.000Z,4.2
2022-07-30T17:17:31.000Z,4.1
2022-07-30T17:21:08.000Z,4.4
2022-07-30T17:24:41.000Z,4.6
2022-07-30T17:28:14.000Z,4.3
2022-07-30T17:31:52.000Z,4.6
2022-07-30T17:35:25.000Z,5.1
2022-07-30T17:38:59.000Z,4.3
2022-07-30T17:41:53.000Z,4.2
2022-07-30T17:45:28.000Z,4.8
2022-07-30T17:49:01.000Z,4.1
2022-07-30T17:52:34.000Z,4.5
2022-07-30T17:56:07.000Z,4.1
2022-07-30T17:59:52.000Z,4.1
2022-07-30T18:03:26.000Z,4.5
2022-07-30T18:06:59.000Z,5
2022-07-30T18:10:32.000Z,5
2022-07-30T18:14:05.000Z,5.1
2022-07-30T18:17:38.000Z,5.1
2022-07-30T18:20:29.000Z,5
2022-07-30T18:24:13.000Z,5.3
2022-07-30T18:27:53.000Z,5.3
2022-07-30T18:31:26.000Z,5.2
2022-07-30T18:34:58.000Z,5.2
2022-07-30T18:38:37.000Z,5.1
2022-07-30T18:42:10.000Z,5.5
2022-07-30T18:45:47.000Z,5.8
2022-07-30T18:49:19.000Z,5.8
2022-07-30T18:53:02.000Z,5.9
2022-07-30T18:56:41.000Z,5.8
2022-07-30T18:59:32.000Z,5.9
2022-07-30T19:03:05.000Z,5.8
2022-07-30T19:06:43.000Z,5.9
2022-07-30T19:10:16.000Z,5.8
2022-07-30T19:13:51.000Z,5.8
2022-07-30T19:17:24.000Z,6.1
2022-07-30T19:21:12.000Z,5.7
2022-07-30T19:24:45.000Z,5.9
2022-07-30T19:28:17.000Z,6.3
2022-07-30T19:31:50.000Z,6.3
2022-07-30T19:35:22.000Z,6.5
2022-07-30T19:38:14.000Z,6.7
2022-07-30T19:42:05.000Z,6.4
2022-07-30T19:45:39.000Z,7.1
2022-07-30T19:49:14.000Z,6.6
2022-07-30T19:52:54.000Z,6.4
2022-07-30T19:56:27.000Z,7.1
2022-07-30T20:00:03.000Z,6.7
2022-07-30T20:03:39.000Z,7.2
2022-07-30T20:07:13.000Z,7.6
2022-07-30T20:10:46.000Z,7
2022-07-30T20:39:36.000Z,8
2022-07-30T20:43:13.000Z,8
2022-07-30T20:46:48.000Z,7.8
2022-07-30T20:50:25.000Z,7.8
2022-07-30T20:53:58.000Z,8
2022-07-30T20:57:32.000Z,7.7
2022-07-30T21:01:28.000Z,8.2
2022-07-30T21:05:02.000Z,7.9
2022-07-30T21:08:39.000Z,8.4
2022-07-30T21:12:13.000Z,8.5
2022-07-30T21:36:35.000Z,8.6
2022-07-30T21:40:08.000Z,8.3
2022-07-30T21:43:41.000Z,8.4
2022-07-30T21:47:14.000Z,8.4
2022-07-30T21:50:51.000Z,8.3
2022-07-30T21:54:23.000Z,8.1
2022-07-30T21:58:11.000Z,7.9
2022-07-30T22:01:53.000Z,8.3
2022-07-30T22:06:06.000Z,8.2
2022-07-30T22:09:39.000Z,8.2
2022-07-30T22:13:12.000Z,8
2022-07-30T22:16:06.000Z,7.9
2022-07-30T22:19:57.000Z,8.1
2022-07-30T22:23:34.000Z,8
2022-07-30T22:27:42.000Z,8.9
2022-07-30T22:31:22.000Z,8.6
2022-07-30T22:35:05.000Z,8.2
2022-07-30T22:38:44.000Z,8.5
2022-07-30T22:42:25.000Z,8.4
2022-07-30T22:46:02.000Z,8.5
2022-07-30T22:49:56.000Z,8
2022-07-30T22:54:08.000Z,8.1
2022-07-30T22:57:00.000Z,8.4
2022-07-30T23:00:33.000Z,8.5
2022-07-30T23:04:11.000Z,8.5
2022-07-30T23:07:55.000Z,8.6
2022-07-30T23:11:47.000Z,8.9
2022-07-30T23:15:21.000Z,8.8
2022-07-30T23:18:54.000Z,8.5
2022-07-30T23:22:26.000Z,8
2022-07-30T23:25:59.000Z,8.7
2022-07-30T23:29:32.000Z,8.2
2022-07-30T23:33:04.000Z,8.4
2022-07-30T23:35:56.000Z,7.8
2022-07-30T23:39:47.000Z,8.3
2022-07-30T23:43:29.000Z,8.4
2022-07-30T23:47:01.000Z,8.2
2022-07-30T23:50:34.000Z,8
2022-07-30T23:54:07.000Z,8.2
2022-07-30T23:57:39.000Z,8.4
